Time;durP1;ratioP1;P1;durP2;ratioP2;P2;SDS_P1;SDS_P2;PMS_P1;PMS_P2;Temp;Humidity;BMP_temperature;BMP_pressure;BME280_temperature;BME280_humidity;BME280_pressure;Samples;Min_cycle;Max_cycle;Signal;HPM_P1;HPM_P2
2022/09/20 00:01:27;;;;;;;4.30;1.08;;;13.50;99.90;;;;;;5072118;28;20177;-78
2022/09/20 00:03:58;;;;;;;4.15;1.45;;;13.20;99.90;;;;;;5072172;28;20178;-80
2022/09/20 00:06:26;;;;;;;4.57;0.85;;;13.00;99.90;;;;;;5072256;28;20177;-79
2022/09/20 00:08:52;;;;;;;2.75;1.02;;;12.90;99.90;;;;;;5072097;28;20204;-80
2022/09/20 00:11:24;;;;;;;3.95;1.17;;;13.00;99.90;;;;;;5072043;28;20166;-79
2022/09/20 00:13:53;;;;;;;2.67;1.20;;;13.00;99.90;;;;;;5072259;28;20284;-79
2022/09/20 00:16:31;;;;;;;5.13;1.50;;;13.10;99.90;;;;;;5072315;28;20390;-83
2022/09/20 00:18:58;;;;;;;5.45;0.93;;;13.20;99.90;;;;;;5071000;28;20291;-79
2022/09/20 00:21:26;;;;;;;2.88;1.50;;;13.40;99.90;;;;;;5072124;28;20185;-81
2022/09/20 00:23:52;;;;;;;2.25;1.08;;;13.10;99.90;;;;;;5072042;28;20221;-79
2022/09/20 00:26:18;;;;;;;1.98;1.10;;;13.10;99.90;;;;;;5075729;28;20198;-79
2022/09/20 00:28:45;;;;;;;4.18;1.30;;;13.10;99.90;;;;;;5075998;28;20167;-79
2022/09/20 00:31:11;;;;;;;3.50;1.02;;;13.00;99.90;;;;;;5075534;28;20182;-79
2022/09/20 00:36:21;;;;;;;1.67;1.20;;;12.90;99.90;;;;;;5075525;28;20169;-80
2022/09/20 00:38:47;;;;;;;4.15;1.20;;;12.90;99.90;;;;;;5075507;28;20253;-79
2022/09/20 00:41:13;;;;;;;3.05;1.48;;;12.90;99.90;;;;;;5075696;28;20177;-79
2022/09/20 00:43:43;;;;;;;7.47;1.25;;;13.00;99.90;;;;;;5076217;28;20248;-81
2022/09/20 00:46:21;;;;;;;1.23;1.10;;;12.90;99.90;;;;;;5076864;28;20171;-78
2022/09/20 00:48:47;;;;;;;1.08;0.98;;;12.70;99.90;;;;;;5076274;28;20249;-78
2022/09/20 00:51:16;;;;;;;2.30;1.23;;;12.50;99.90;;;;;;5092774;28;20163;-78
2022/09/20 00:53:46;;;;;;;3.45;1.17;;;12.60;99.90;;;;;;5075627;28;20218;-79
2022/09/20 00:56:33;;;;;;;1.65;1.30;;;12.80;99.90;;;;;;5075300;28;20173;-78
2022/09/20 00:59:10;;;;;;;6.32;1.40;;;12.80;99.90;;;;;;5075163;28;20812;-78
2022/09/20 01:01:36;;;;;;;7.85;1.30;;;12.80;99.90;;;;;;5074718;28;20166;-79
2022/09/20 01:04:02;;;;;;;2.08;1.02;;;12.80;99.90;;;;;;5073424;28;20205;-79
2022/09/20 01:06:29;;;;;;;7.63;1.73;;;12.90;99.90;;;;;;5074825;28;20632;-79
2022/09/20 01:08:56;;;;;;;10.85;1.45;;;12.90;99.90;;;;;;5075180;28;20652;-80
2022/09/20 01:11:21;;;;;;;1.67;1.45;;;12.90;99.90;;;;;;5075097;28;20624;-79
2022/09/20 01:13:47;;;;;;;3.88;1.65;;;12.80;99.90;;;;;;5074577;28;20206;-79
2022/09/20 01:16:14;;;;;;;6.68;1.38;;;12.90;99.90;;;;;;5074885;28;20185;-78
2022/09/20 01:18:41;;;;;;;5.18;1.55;;;12.90;99.90;;;;;;5074963;28;20167;-79
2022/09/20 01:21:08;;;;;;;4.65;1.92;;;12.90;99.90;;;;;;5075186;28;20166;-79
2022/09/20 01:24:03;;;;;;;3.85;1.88;;;12.90;99.90;;;;;;5073709;28;20251;-79
2022/09/20 01:26:49;;;;;;;6.63;1.48;;;12.80;99.90;;;;;;5074800;28;20169;-79
2022/09/20 01:29:42;;;;;;;3.85;1.52;;;12.70;99.90;;;;;;5074867;28;20170;-80
2022/09/20 01:32:14;;;;;;;4.38;1.63;;;12.80;99.90;;;;;;5074729;28;20679;-79
2022/09/20 01:35:04;;;;;;;8.05;1.70;;;12.80;99.90;;;;;;5074812;28;20178;-78
2022/09/20 01:37:44;;;;;;;5.82;1.38;;;12.80;99.90;;;;;;5073566;28;20194;-79
2022/09/20 01:40:29;;;;;;;4.28;1.70;;;12.80;99.90;;;;;;5075282;28;20174;-79
2022/09/20 01:43:12;;;;;;;4.32;1.35;;;12.70;99.90;;;;;;5074001;28;20223;-79
2022/09/20 01:45:45;;;;;;;6.90;1.77;;;12.90;99.90;;;;;;5074418;28;20178;-79
2022/09/20 01:48:19;;;;;;;4.95;2.10;;;12.90;99.90;;;;;;5072977;28;20186;-80
2022/09/20 01:51:11;;;;;;;7.80;2.50;;;13.00;99.90;;;;;;5074088;28;20174;-79
2022/09/20 01:54:04;;;;;;;18.83;2.90;;;13.00;99.90;;;;;;5073706;28;20249;-79
2022/09/20 01:56:50;;;;;;;13.02;2.97;;;12.90;99.90;;;;;;5074308;28;20163;-79
2022/09/20 01:59:48;;;;;;;12.45;2.20;;;12.80;99.90;;;;;;5074473;28;20171;-78
2022/09/20 02:02:41;;;;;;;10.07;1.80;;;12.90;99.90;;;;;;5072508;28;20306;-78
2022/09/20 02:05:37;;;;;;;10.80;1.80;;;12.90;99.90;;;;;;5073974;28;20186;-79
2022/09/20 02:08:23;;;;;;;3.55;2.10;;;12.80;99.90;;;;;;5089660;28;20187;-80
2022/09/20 02:11:21;;;;;;;2.22;1.63;;;12.80;99.90;;;;;;5074009;28;20163;-80
2022/09/20 02:14:03;;;;;;;12.25;2.00;;;12.60;99.90;;;;;;5073666;28;20293;-78
2022/09/20 02:16:44;;;;;;;3.97;2.20;;;12.50;99.90;;;;;;5073702;28;20158;-79
2022/09/20 02:19:20;;;;;;;5.10;2.20;;;12.70;99.90;;;;;;5073474;28;20155;-79
2022/09/20 02:21:49;;;;;;;5.97;2.35;;;12.90;99.90;;;;;;5072331;28;20174;-79
2022/09/20 02:24:38;;;;;;;4.60;2.88;;;12.90;99.90;;;;;;5073599;28;20186;-80
2022/09/20 02:27:04;;;;;;;5.38;2.53;;;12.90;99.90;;;;;;5073231;28;20196;-79
2022/09/20 02:29:48;;;;;;;4.60;2.55;;;12.90;99.90;;;;;;5073021;28;20201;-79
2022/09/20 02:32:16;;;;;;;9.18;2.97;;;13.00;99.90;;;;;;5073127;28;20206;-78
2022/09/20 02:35:11;;;;;;;3.78;2.15;;;13.00;99.90;;;;;;5072130;28;20199;-79
2022/09/20 02:37:37;;;;;;;2.88;1.92;;;12.90;99.90;;;;;;5073136;28;20167;-79
2022/09/20 02:40:24;;;;;;;8.82;2.67;;;12.90;99.90;;;;;;5073173;28;20178;-79
2022/09/20 02:43:04;;;;;;;8.95;3.25;;;13.00;99.90;;;;;;5073177;28;20289;-78
2022/09/20 02:45:47;;;;;;;4.55;2.50;;;13.10;99.90;;;;;;5073210;28;20173;-78
2022/09/20 02:48:16;;;;;;;2.67;1.98;;;13.10;99.90;;;;;;5071121;28;20177;-78
2022/09/20 02:50:54;;;;;;;4.38;2.38;;;13.00;99.90;;;;;;5073041;28;20198;-81
2022/09/20 02:53:36;;;;;;;7.03;2.28;;;13.20;99.90;;;;;;5072886;28;20217;-78
2022/09/20 02:56:31;;;;;;;5.53;2.15;;;13.10;99.90;;;;;;5072852;28;20288;-78
2022/09/20 02:59:20;;;;;;;5.15;2.25;;;13.20;99.90;;;;;;5072560;28;20190;-78
2022/09/20 03:02:14;;;;;;;5.75;1.85;;;13.10;99.90;;;;;;5072885;28;20632;-79
2022/09/20 03:04:55;;;;;;;3.20;2.42;;;13.20;99.90;;;;;;5072445;28;20186;-78
2022/09/20 03:07:24;;;;;;;4.35;2.40;;;13.40;99.90;;;;;;5072747;28;20550;-79
2022/09/20 03:10:19;;;;;;;5.68;2.15;;;13.50;99.90;;;;;;5072527;28;20665;-79
2022/09/20 03:13:26;;;;;;;12.43;2.38;;;13.30;99.90;;;;;;5072634;28;20206;-78
2022/09/20 03:16:03;;;;;;;2.35;1.75;;;13.40;99.90;;;;;;5071114;28;20209;-78
2022/09/20 03:18:37;;;;;;;9.80;2.05;;;13.30;99.90;;;;;;5071194;28;20193;-78
2022/09/20 03:21:33;;;;;;;3.50;2.50;;;13.10;99.90;;;;;;5072431;28;20173;-78
2022/09/20 03:24:27;;;;;;;12.32;2.60;;;13.10;99.90;;;;;;5072534;28;20182;-78
2022/09/20 03:27:18;;;;;;;3.63;2.30;;;13.20;99.90;;;;;;5072376;28;20167;-78
2022/09/20 03:30:00;;;;;;;3.67;2.20;;;13.50;99.90;;;;;;5072427;28;20175;-78
2022/09/20 03:32:38;;;;;;;5.43;2.60;;;13.50;99.90;;;;;;5072092;28;20192;-78
2022/09/20 03:35:41;;;;;;;4.75;2.80;;;13.50;99.90;;;;;;5072199;28;20231;-78
2022/09/20 03:38:18;;;;;;;3.53;2.53;;;13.50;99.90;;;;;;5061009;28;20185;-78
2022/09/20 03:41:22;;;;;;;6.22;2.42;;;13.60;99.90;;;;;;5072570;28;20205;-78
2022/09/20 03:43:56;;;;;;;5.45;2.30;;;13.60;99.90;;;;;;5060942;28;20240;-78
2022/09/20 03:46:26;;;;;;;4.45;2.15;;;13.50;99.90;;;;;;5070812;28;20170;-78
2022/09/20 03:49:30;;;;;;;6.32;2.28;;;13.30;99.90;;;;;;5070935;28;20658;-78
2022/09/20 03:52:16;;;;;;;7.80;2.40;;;13.40;99.90;;;;;;5049300;28;20263;-78
2022/09/20 03:55:14;;;;;;;3.47;2.13;;;13.30;99.90;;;;;;5068603;28;20301;-78
2022/09/20 03:57:49;;;;;;;8.20;2.45;;;13.30;99.90;;;;;;5071969;28;20266;-79
2022/09/20 04:00:30;;;;;;;4.57;2.42;;;13.50;99.90;;;;;;5091565;28;20166;-78
2022/09/20 04:03:33;;;;;;;3.17;2.13;;;13.50;99.90;;;;;;5075687;28;20158;-80
2022/09/20 04:06:04;;;;;;;7.65;2.10;;;13.20;99.90;;;;;;5074553;28;20174;-79
2022/09/20 04:09:02;;;;;;;3.60;1.90;;;13.40;99.90;;;;;;5076246;28;20170;-80
2022/09/20 04:12:04;;;;;;;5.47;2.05;;;13.50;99.90;;;;;;5076048;28;20206;-78
2022/09/20 04:14:52;;;;;;;5.30;2.60;;;13.40;99.90;;;;;;5075846;28;20201;-79
2022/09/20 04:17:42;;;;;;;3.78;2.05;;;13.40;99.90;;;;;;5075979;28;20161;-79
2022/09/20 04:20:22;;;;;;;3.22;2.33;;;13.30;99.90;;;;;;5076075;28;20163;-79
2022/09/20 04:22:53;;;;;;;8.57;2.45;;;13.30;99.90;;;;;;5075943;28;20174;-78
2022/09/20 04:25:22;;;;;;;7.03;2.90;;;13.20;99.90;;;;;;5075434;28;20170;-79
2022/09/20 04:28:07;;;;;;;7.03;2.50;;;13.00;99.90;;;;;;5076112;28;20163;-78
2022/09/20 04:30:42;;;;;;;9.20;2.90;;;13.10;99.90;;;;;;5075940;28;20169;-78
2022/09/20 04:33:19;;;;;;;11.23;2.67;;;13.00;99.90;;;;;;5074431;28;20217;-79
2022/09/20 04:38:53;;;;;;;10.60;2.65;;;12.70;99.90;;;;;;5075641;28;20193;-78
2022/09/20 04:41:51;;;;;;;3.58;2.28;;;12.50;99.90;;;;;;5074205;28;20234;-78
2022/09/20 04:44:44;;;;;;;4.03;2.85;;;12.50;99.90;;;;;;5075684;28;20193;-79
2022/09/20 04:47:35;;;;;;;2.42;2.22;;;12.40;99.90;;;;;;5075640;28;20640;-79
2022/09/20 04:50:41;;;;;;;4.95;3.28;;;12.50;99.90;;;;;;5075562;28;20167;-79
2022/09/20 04:53:51;;;;;;;17.33;2.95;;;12.70;99.90;;;;;;5063059;28;20229;-79
2022/09/20 04:56:33;;;;;;;4.82;2.70;;;12.60;99.90;;;;;;5075419;28;20170;-78
2022/09/20 04:59:34;;;;;;;9.73;2.88;;;12.50;99.90;;;;;;5075176;28;20198;-79
2022/09/20 05:02:19;;;;;;;7.57;2.47;;;12.60;99.90;;;;;;5075143;28;20190;-78
2022/09/20 05:05:06;;;;;;;2.65;2.13;;;12.60;99.90;;;;;;5073605;28;20190;-79
2022/09/20 05:07:55;;;;;;;9.55;2.75;;;12.60;99.90;;;;;;5075344;28;20171;-79
2022/09/20 05:11:09;;;;;;;10.45;3.58;;;12.60;99.90;;;;;;5074556;28;20173;-78
2022/09/20 05:14:21;;;;;;;6.65;3.45;;;12.50;99.90;;;;;;5075005;28;20976;-78
2022/09/20 05:17:18;;;;;;;16.55;3.13;;;12.50;99.90;;;;;;5075265;28;20162;-79
2022/09/20 05:20:22;;;;;;;3.75;2.60;;;12.50;99.90;;;;;;5074015;28;20174;-78
2022/09/20 05:23:22;;;;;;;3.95;2.70;;;12.70;99.90;;;;;;5055341;28;20271;-78
2022/09/20 05:26:07;;;;;;;6.70;3.50;;;12.80;99.90;;;;;;5073567;28;20192;-79
2022/09/20 05:28:55;;;;;;;11.38;3.17;;;12.80;99.90;;;;;;5075263;28;20257;-79
2022/09/20 05:31:42;;;;;;;5.50;2.35;;;12.90;99.90;;;;;;5075583;28;20249;-78
2022/09/20 05:34:30;;;;;;;7.78;3.28;;;13.00;99.90;;;;;;5075271;28;20228;-78
2022/09/20 05:37:15;;;;;;;9.57;3.83;;;13.10;99.90;;;;;;5077085;28;20171;-78
2022/09/20 05:40:01;;;;;;;7.35;3.22;;;13.10;99.90;;;;;;5076605;28;20162;-79
2022/09/20 05:42:41;;;;;;;15.98;3.63;;;13.00;99.90;;;;;;5088601;28;20169;-82
2022/09/20 05:45:20;;;;;;;18.52;3.40;;;12.80;99.90;;;;;;5099219;28;20186;-79
2022/09/20 05:47:55;;;;;;;7.95;3.22;;;12.60;99.90;;;;;;5098493;28;20166;-79
2022/09/20 05:51:04;;;;;;;16.90;3.28;;;12.60;99.90;;;;;;5100198;28;20139;-80
2022/09/20 05:54:07;;;;;;;10.27;3.20;;;12.60;99.90;;;;;;5098910;28;20212;-80
2022/09/20 05:56:53;;;;;;;9.73;3.50;;;12.50;99.90;;;;;;5098735;28;20224;-79
2022/09/20 05:59:48;;;;;;;10.68;3.17;;;12.60;99.90;;;;;;5098942;28;20167;-79
2022/09/20 06:02:38;;;;;;;11.93;3.22;;;12.70;99.90;;;;;;5093370;28;20177;-79
2022/09/20 06:05:15;;;;;;;9.15;3.20;;;12.70;99.90;;;;;;5086349;28;20566;-85
2022/09/20 06:07:59;;;;;;;8.82;3.08;;;12.80;99.90;;;;;;5090256;28;20185;-79
2022/09/20 06:10:53;;;;;;;9.48;3.22;;;12.60;99.90;;;;;;5090996;28;20181;-83
2022/09/20 06:13:41;;;;;;;8.02;3.10;;;12.80;99.90;;;;;;5089202;28;20289;-81
2022/09/20 06:16:15;;;;;;;5.35;3.13;;;12.80;99.90;;;;;;5088693;28;20163;-82
2022/09/20 06:19:01;;;;;;;5.13;3.17;;;12.80;99.90;;;;;;5089604;28;20223;-84
2022/09/20 06:21:49;;;;;;;12.95;3.17;;;12.80;99.90;;;;;;5082674;28;20159;-80
2022/09/20 06:24:45;;;;;;;7.68;3.22;;;12.90;99.90;;;;;;5082615;28;20178;-79
2022/09/20 06:27:25;;;;;;;11.50;3.42;;;13.00;99.90;;;;;;5097268;28;20186;-80
2022/09/20 06:29:59;;;;;;;10.68;3.00;;;13.10;99.90;;;;;;5076600;28;20185;-77
2022/09/20 06:32:26;;;;;;;8.48;3.53;;;13.20;99.90;;;;;;5075381;28;20259;-79
2022/09/20 06:34:52;;;;;;;12.55;3.10;;;13.30;99.90;;;;;;5074857;28;20198;-80
2022/09/20 06:42:59;;;;;;;7.18;3.40;;;13.20;99.90;;;;;;5074975;28;20178;-78
2022/09/20 06:45:25;;;;;;;7.80;3.22;;;13.20;99.90;;;;;;5073496;28;20175;-78
2022/09/20 06:47:51;;;;;;;19.52;3.75;;;13.30;99.90;;;;;;5073007;28;20169;-78
2022/09/20 06:50:17;;;;;;;17.27;4.15;;;13.40;99.90;;;;;;5072465;28;20166;-78
2022/09/20 06:52:46;;;;;;;10.05;3.95;;;13.40;99.90;;;;;;5072208;28;20252;-78
2022/09/20 06:55:24;;;;;;;11.65;3.60;;;13.30;99.90;;;;;;5072265;28;20206;-78
2022/09/20 06:57:50;;;;;;;10.98;3.75;;;13.50;99.90;;;;;;5072894;28;20170;-78
2022/09/20 07:00:16;;;;;;;8.02;3.40;;;13.10;99.90;;;;;;5072489;28;20215;-79
2022/09/20 07:02:42;;;;;;;7.25;3.25;;;13.30;99.90;;;;;;5072463;28;20257;-78
2022/09/20 07:05:14;;;;;;;6.03;3.40;;;13.40;99.90;;;;;;5072708;28;20564;-78
2022/09/20 07:07:39;;;;;;;7.72;4.00;;;13.40;99.90;;;;;;5073166;28;20167;-79
2022/09/20 07:10:05;;;;;;;7.57;3.85;;;13.60;99.90;;;;;;5072868;28;20185;-77
2022/09/20 07:12:32;;;;;;;11.15;4.00;;;13.70;99.90;;;;;;5072708;28;20194;-79
2022/09/20 07:14:58;;;;;;;12.98;5.03;;;13.80;99.90;;;;;;5072539;28;20277;-78
2022/09/20 07:17:24;;;;;;;5.90;4.55;;;13.80;99.90;;;;;;5073099;28;20198;-79
2022/09/20 07:19:50;;;;;;;9.80;4.47;;;13.80;99.90;;;;;;5057729;28;20178;-78
2022/09/20 07:22:16;;;;;;;10.20;6.40;;;13.80;99.90;;;;;;5075557;28;20527;-78
2022/09/20 07:24:43;;;;;;;16.15;4.38;;;13.80;99.90;;;;;;5075020;28;20199;-79
2022/09/20 07:27:11;;;;;;;10.65;4.32;;;13.80;99.90;;;;;;5077465;28;20155;-79
2022/09/20 07:29:37;;;;;;;10.40;3.72;;;13.90;99.90;;;;;;5079722;28;20200;-80
2022/09/20 07:32:03;;;;;;;9.60;4.00;;;14.00;99.90;;;;;;5080092;28;20170;-82
2022/09/20 07:34:28;;;;;;;7.68;3.42;;;14.20;99.90;;;;;;5077694;28;20267;-82
2022/09/20 07:36:58;;;;;;;7.45;3.63;;;14.40;99.90;;;;;;5075890;28;20578;-80
2022/09/20 07:39:25;;;;;;;11.70;3.65;;;14.40;99.90;;;;;;5074402;28;20181;-81
2022/09/20 07:41:51;;;;;;;9.13;4.10;;;14.50;99.90;;;;;;5075895;28;20176;-79
2022/09/20 07:44:20;;;;;;;9.65;3.25;;;14.50;99.90;;;;;;5073260;28;20281;-80
2022/09/20 07:46:50;;;;;;;14.98;3.22;;;14.60;99.90;;;;;;5075595;28;20238;-85
2022/09/20 07:49:20;;;;;;;9.75;3.30;;;14.50;99.90;;;;;;5095083;28;20182;-93
2022/09/20 07:51:47;;;;;;;8.30;3.55;;;14.60;99.90;;;;;;5083041;28;20195;-80
2022/09/20 07:54:15;;;;;;;9.77;2.92;;;14.60;99.90;;;;;;5086955;28;20304;-91
2022/09/20 07:56:41;;;;;;;4.10;3.28;;;14.70;99.90;;;;;;5090672;28;20240;-90
2022/09/20 07:59:11;;;;;;;5.00;3.00;;;14.80;99.90;;;;;;5093350;28;20200;-77
2022/09/20 08:01:42;;;;;;;6.35;3.03;;;14.70;99.90;;;;;;5092216;28;20158;-80
2022/09/20 08:04:13;;;;;;;9.43;3.45;;;14.80;99.90;;;;;;5065103;28;20229;-78
2022/09/20 08:06:43;;;;;;;7.07;2.70;;;15.10;99.90;;;;;;5083230;28;20213;-78
2022/09/20 08:09:14;;;;;;;5.93;2.78;;;15.30;99.90;;;;;;5042268;28;20205;-92
2022/09/20 08:11:45;;;;;;;4.97;2.40;;;15.60;99.90;;;;;;5049074;28;20179;-85
2022/09/20 08:14:16;;;;;;;3.90;2.97;;;15.90;99.90;;;;;;5068488;28;20211;-78
2022/09/20 08:16:46;;;;;;;8.95;3.30;;;15.80;99.90;;;;;;5078681;28;20150;-93
2022/09/20 08:19:21;;;;;;;6.10;2.70;;;15.80;99.90;;;;;;5086525;28;20167;-79
2022/09/20 08:21:48;;;;;;;3.58;2.50;;;16.00;99.90;;;;;;5082664;28;20208;-79
2022/09/20 08:24:17;;;;;;;4.70;2.95;;;16.10;99.90;;;;;;5063694;28;20233;-83
2022/09/20 08:26:45;;;;;;;10.35;3.33;;;16.20;99.90;;;;;;5061322;28;20636;-83
2022/09/20 08:29:13;;;;;;;5.55;2.70;;;16.40;99.90;;;;;;5051422;28;20198;-81
2022/09/20 08:31:41;;;;;;;8.15;2.67;;;16.90;99.90;;;;;;5051587;28;20685;-83
2022/09/20 08:36:46;;;;;;;18.00;2.88;;;17.10;99.90;;;;;;4964691;28;20217;-77
2022/09/20 08:39:13;;;;;;;6.28;2.60;;;17.10;99.90;;;;;;4971207;28;20694;-77
2022/09/20 08:41:47;;;;;;;6.25;2.78;;;17.10;99.90;;;;;;4970845;28;20194;-77
2022/09/20 08:44:24;;;;;;;10.40;3.13;;;17.00;99.90;;;;;;4970752;28;20324;-80
2022/09/20 08:47:01;;;;;;;7.18;4.20;;;17.20;99.90;;;;;;4954429;28;20261;-77
2022/09/20 08:49:28;;;;;;;8.65;3.15;;;17.30;99.90;;;;;;4989932;28;20165;-89
2022/09/20 08:51:57;;;;;;;3.70;2.50;;;17.40;99.90;;;;;;4974805;28;20175;-78
2022/09/20 08:54:28;;;;;;;5.50;2.47;;;17.50;99.90;;;;;;4973859;28;20232;-78
2022/09/20 08:56:54;;;;;;;6.88;2.10;;;17.60;99.90;;;;;;4972562;28;20188;-79
2022/09/20 08:59:21;;;;;;;17.80;4.60;;;17.80;99.90;;;;;;4975911;28;20178;-79
2022/09/20 09:01:49;;;;;;;5.07;3.22;;;17.80;99.90;;;;;;4974516;28;20240;-76
2022/09/20 09:04:16;;;;;;;6.95;2.90;;;17.80;99.90;;;;;;4969913;28;20660;-81
2022/09/20 09:06:43;;;;;;;10.70;3.00;;;17.80;99.90;;;;;;4990000;28;20233;-78
2022/09/20 09:09:28;;;;;;;14.43;2.88;;;17.50;99.90;;;;;;4974443;28;20278;-77
2022/09/20 09:11:55;;;;;;;7.88;2.40;;;17.20;99.90;;;;;;4973029;28;20264;-80
2022/09/20 09:17:10;;;;;;;4.78;3.15;;;17.10;99.90;;;;;;4986628;28;20185;-83
2022/09/20 09:19:50;;;;;;;4.22;2.55;;;16.90;99.90;;;;;;4977610;28;20547;-77
2022/09/20 09:22:38;;;;;;;12.52;2.53;;;16.70;99.90;;;;;;4973785;28;20527;-77
2022/09/20 09:25:16;;;;;;;9.13;2.83;;;16.60;99.90;;;;;;4975543;28;20661;-77
2022/09/20 09:27:55;;;;;;;10.82;2.55;;;16.50;99.90;;;;;;4975242;28;20180;-77
2022/09/20 09:30:29;;;;;;;7.72;2.17;;;16.80;99.90;;;;;;4975210;28;20174;-77
2022/09/20 09:33:13;;;;;;;6.18;1.63;;;17.20;99.90;;;;;;4976031;28;20217;-78
2022/09/20 09:35:38;;;;;;;16.00;2.72;;;17.60;99.90;;;;;;4975471;28;20525;-80
2022/09/20 09:38:04;;;;;;;7.25;2.95;;;18.00;99.90;;;;;;4975935;28;20181;-78
2022/09/20 09:40:31;;;;;;;11.35;2.17;;;18.40;99.90;;;;;;4976805;28;20174;-77
2022/09/20 09:43:01;;;;;;;4.50;1.75;;;18.50;99.90;;;;;;4975008;28;20166;-77
2022/09/20 09:45:34;;;;;;;23.58;2.33;;;18.70;99.90;;;;;;4976609;28;20180;-78
2022/09/20 09:48:01;;;;;;;7.53;2.15;;;18.90;99.90;;;;;;4975733;28;20174;-78
2022/09/20 09:50:32;;;;;;;5.50;1.60;;;18.60;99.90;;;;;;4975618;28;20654;-77
2022/09/20 09:53:21;;;;;;;10.80;3.63;;;18.40;99.90;;;;;;4975874;28;20202;-77
2022/09/20 09:56:26;;;;;;;4.72;2.92;;;18.00;99.90;;;;;;4975719;28;20632;-77
2022/09/20 09:59:23;;;;;;;6.03;2.20;;;17.60;99.90;;;;;;4975534;28;20181;-77
2022/09/20 10:01:56;;;;;;;11.38;2.72;;;17.40;99.90;;;;;;4976735;28;20173;-77
2022/09/20 10:04:33;;;;;;;9.48;2.50;;;17.60;99.90;;;;;;4978053;28;20194;-78
2022/09/20 10:07:13;;;;;;;4.20;2.15;;;17.80;99.90;;;;;;4977368;28;20228;-77
2022/09/20 10:10:03;;;;;;;3.60;2.35;;;18.00;99.90;;;;;;4978027;28;20217;-77
2022/09/20 10:12:54;;;;;;;9.82;2.97;;;18.20;99.90;;;;;;4958952;28;20209;-78
2022/09/20 10:15:28;;;;;;;15.57;2.83;;;18.30;99.90;;;;;;4978620;28;20300;-77
2022/09/20 10:18:16;;;;;;;8.05;1.75;;;18.70;99.90;;;;;;4958364;28;20197;-81
2022/09/20 10:21:06;;;;;;;10.77;1.58;;;19.10;99.90;;;;;;4975244;28;20656;-78
2022/09/20 10:23:57;;;;;;;7.38;1.30;;;19.50;99.90;;;;;;4975094;28;20280;-78
2022/09/20 10:26:36;;;;;;;5.28;0.90;;;19.60;99.90;;;;;;4975806;28;20714;-77
2022/09/20 10:29:24;;;;;;;5.80;1.35;;;19.20;99.90;;;;;;4975071;28;20173;-76
2022/09/20 10:32:05;;;;;;;2.67;1.35;;;19.40;99.90;;;;;;4975084;28;20208;-79
2022/09/20 10:34:53;;;;;;;6.75;1.10;;;19.50;99.90;;;;;;4974834;28;20706;-80
2022/09/20 10:37:22;;;;;;;6.90;3.30;;;19.50;99.90;;;;;;4974752;28;20666;-78
2022/09/20 10:40:05;;;;;;;6.00;1.73;;;19.50;99.90;;;;;;4974618;28;20253;-75
2022/09/20 10:46:16;;;;;;;2.28;0.70;;;19.80;99.90;;;;;;4974382;28;20184;-77
2022/09/20 10:49:01;;;;;;;1.88;0.90;;;18.80;99.90;;;;;;4933292;29;20186;-80
2022/09/20 10:51:50;;;;;;;31.60;1.20;;;18.80;99.90;;;;;;4972114;28;20189;-79
2022/09/20 10:54:38;;;;;;;4.82;1.00;;;18.70;99.90;;;;;;4971157;28;20230;-78
2022/09/20 10:57:19;;;;;;;6.25;1.23;;;18.40;99.90;;;;;;4974433;28;20173;-79
2022/09/20 10:59:56;;;;;;;7.85;1.38;;;18.00;99.90;;;;;;4974789;28;20166;-78
2022/09/20 11:02:50;;;;;;;5.63;2.22;;;18.00;99.90;;;;;;4974497;28;20173;-78
2022/09/20 11:06:00;;;;;;;7.80;2.47;;;17.90;99.90;;;;;;4974251;28;20194;-78
2022/09/20 11:08:32;;;;;;;3.40;2.22;;;17.60;99.90;;;;;;4972177;28;20640;-76
2022/09/20 11:11:11;;;;;;;4.20;1.77;;;17.40;99.90;;;;;;4973842;28;20162;-79
2022/09/20 11:13:54;;;;;;;10.15;2.00;;;16.80;99.90;;;;;;4973886;28;20209;-79
2022/09/20 11:16:35;;;;;;;2.90;1.73;;;16.90;99.90;;;;;;4988907;28;20265;-80
2022/09/20 11:19:26;;;;;;;12.10;1.95;;;17.20;99.90;;;;;;4974595;28;20185;-79
2022/09/20 11:21:58;;;;;;;5.22;1.90;;;17.80;99.90;;;;;;4971050;28;20190;-78
2022/09/20 11:25:01;;;;;;;5.75;1.58;;;17.80;99.90;;;;;;4973739;28;20252;-78
2022/09/20 11:27:36;;;;;;;6.53;1.92;;;18.10;99.90;;;;;;4973892;28;20227;-78
2022/09/20 11:30:22;;;;;;;12.90;2.22;;;18.60;99.90;;;;;;4973840;28;20259;-78
2022/09/20 11:33:14;;;;;;;4.57;1.48;;;18.70;99.90;;;;;;4973706;28;20732;-78
2022/09/20 11:35:44;;;;;;;7.30;1.60;;;18.70;99.90;;;;;;4977783;28;20197;-75
2022/09/20 11:38:30;;;;;;;3.80;1.02;;;18.90;99.90;;;;;;4973731;28;20170;-75
2022/09/20 11:41:25;;;;;;;5.00;1.33;;;19.10;99.90;;;;;;4974119;28;20166;-76
2022/09/20 11:43:54;;;;;;;17.95;1.00;;;19.00;99.90;;;;;;4974212;28;20192;-77
2022/09/20 11:46:26;;;;;;;1.88;0.88;;;18.90;99.90;;;;;;4973316;28;20177;-77
2022/09/20 11:49:03;;;;;;;4.03;1.13;;;19.30;99.90;;;;;;4972886;28;20635;-78
2022/09/20 11:51:30;;;;;;;2.75;1.00;;;19.00;99.90;;;;;;4977164;28;20170;-79
2022/09/20 11:54:29;;;;;;;2.33;0.85;;;18.90;99.90;;;;;;4975516;28;20631;-76
2022/09/20 11:56:56;;;;;;;3.95;1.10;;;18.90;99.90;;;;;;4973794;28;20646;-76
2022/09/20 11:59:35;;;;;;;4.90;1.05;;;18.90;99.90;;;;;;4973799;28;20257;-76
2022/09/20 12:02:04;;;;;;;3.03;0.80;;;19.20;99.90;;;;;;4973804;28;20667;-76
2022/09/20 12:04:34;;;;;;;2.25;1.00;;;19.30;99.90;;;;;;4973548;28;20178;-76
2022/09/20 12:07:04;;;;;;;3.55;0.90;;;18.80;99.90;;;;;;4973696;28;20169;-76
2022/09/20 12:09:36;;;;;;;0.90;0.63;;;18.90;99.90;;;;;;4973714;28;20674;-75
2022/09/20 12:12:23;;;;;;;4.43;0.70;;;19.10;99.90;;;;;;4973540;28;20182;-76
2022/09/20 12:14:57;;;;;;;6.38;0.80;;;18.90;99.90;;;;;;4973189;28;20201;-76
2022/09/20 12:17:44;;;;;;;1.02;0.70;;;18.70;99.90;;;;;;4972209;28;20181;-77
2022/09/20 12:20:33;;;;;;;2.92;1.02;;;18.60;99.90;;;;;;4975903;28;20177;-77
2022/09/20 12:23:37;;;;;;;2.55;0.95;;;19.00;99.90;;;;;;4977096;28;20570;-77
2022/09/20 12:26:15;;;;;;;0.68;0.52;;;19.10;99.90;;;;;;4976664;28;20213;-77
2022/09/20 12:28:48;;;;;;;1.15;0.47;;;19.60;99.90;;;;;;4976837;28;20677;-77
2022/09/20 12:31:30;;;;;;;2.35;1.27;;;19.70;99.90;;;;;;4977109;28;20173;-77
2022/09/20 12:34:16;;;;;;;1.38;0.50;;;19.60;99.90;;;;;;4976967;28;20240;-77
2022/09/20 12:36:53;;;;;;;4.05;1.58;;;19.40;99.90;;;;;;4976575;28;20195;-77
2022/09/20 12:39:31;;;;;;;5.38;1.83;;;19.60;99.90;;;;;;4977242;28;20169;-79
2022/09/20 12:42:04;;;;;;;3.97;1.50;;;19.50;99.90;;;;;;4976960;28;20256;-77
2022/09/20 12:44:43;;;;;;;2.20;0.95;;;19.50;99.90;;;;;;4977151;28;20226;-77
2022/09/20 12:47:11;;;;;;;1.50;0.47;;;19.30;99.90;;;;;;4977419;28;20174;-77
2022/09/20 12:52:55;;;;;;;1.65;0.55;;;19.40;99.90;;;;;;4977382;28;20205;-77
2022/09/20 12:55:37;;;;;;;3.75;0.57;;;19.20;99.90;;;;;;4977401;28;20205;-77
2022/09/20 12:58:18;;;;;;;2.60;0.60;;;19.20;99.90;;;;;;4977083;28;20648;-77
2022/09/20 13:00:58;;;;;;;1.50;0.70;;;19.30;99.90;;;;;;4975882;28;20695;-79
2022/09/20 13:03:30;;;;;;;7.63;2.13;;;19.20;99.90;;;;;;4976981;28;20198;-77
2022/09/20 13:06:09;;;;;;;7.13;1.38;;;19.30;99.90;;;;;;4976736;28;20205;-78
2022/09/20 13:08:48;;;;;;;2.15;1.05;;;19.10;99.90;;;;;;4976971;28;20170;-77
2022/09/20 13:11:27;;;;;;;2.60;0.70;;;18.90;99.90;;;;;;4976757;28;20715;-78
2022/09/20 13:13:57;;;;;;;3.13;0.80;;;18.60;99.90;;;;;;4976375;28;20217;-77
2022/09/20 13:16:50;;;;;;;4.18;0.70;;;18.70;99.90;;;;;;4976368;28;20629;-77
2022/09/20 13:19:29;;;;;;;5.28;0.73;;;18.90;99.90;;;;;;4976617;28;20209;-78
2022/09/20 13:22:31;;;;;;;3.97;0.90;;;19.10;99.90;;;;;;4975270;28;20499;-77
2022/09/20 13:25:01;;;;;;;1.55;0.90;;;19.20;99.90;;;;;;4976471;28;20276;-77
2022/09/20 13:27:45;;;;;;;4.75;0.90;;;19.40;99.90;;;;;;4976458;28;20221;-77
2022/09/20 13:30:24;;;;;;;7.97;0.95;;;19.30;99.90;;;;;;4975157;28;20213;-77
2022/09/20 13:32:50;;;;;;;4.10;0.73;;;19.20;99.90;;;;;;4975565;28;20202;-77
2022/09/20 13:35:30;;;;;;;2.88;0.60;;;19.30;99.90;;;;;;4975741;28;20232;-77
2022/09/20 13:38:06;;;;;;;2.58;0.98;;;19.50;99.90;;;;;;4975906;28;20178;-77
2022/09/20 13:40:41;;;;;;;4.45;1.17;;;19.50;99.90;;;;;;4976060;28;20166;-78
2022/09/20 13:43:29;;;;;;;2.20;0.80;;;19.20;99.90;;;;;;4975978;28;20263;-78
2022/09/20 13:46:05;;;;;;;1.92;0.93;;;19.00;99.90;;;;;;4975925;28;20197;-78
2022/09/20 13:48:31;;;;;;;4.15;0.82;;;18.80;99.90;;;;;;4975022;28;20173;-78
2022/09/20 13:50:58;;;;;;;6.82;0.60;;;18.70;99.90;;;;;;4972465;28;20208;-76
2022/09/20 13:53:29;;;;;;;5.38;0.93;;;18.60;99.90;;;;;;4975794;28;20227;-77
2022/09/20 13:55:58;;;;;;;2.67;0.85;;;18.50;99.90;;;;;;4976836;28;20189;-79
2022/09/20 13:58:32;;;;;;;1.17;0.80;;;18.60;99.90;;;;;;4989827;28;20182;-79
2022/09/20 14:01:00;;;;;;;3.65;1.10;;;18.60;99.90;;;;;;4976968;28;20852;-79
2022/09/20 14:03:27;;;;;;;1.75;0.75;;;18.70;99.90;;;;;;4975123;28;20217;-79
2022/09/20 14:05:58;;;;;;;1.08;0.93;;;18.80;99.90;;;;;;4975215;28;20229;-79
2022/09/20 14:08:28;;;;;;;3.45;0.93;;;19.00;99.90;;;;;;4974770;28;20162;-79